createdAt,value
2023-03-24T00:05:43.568Z,74.07
2023-03-24T00:09:43.164Z,74.16
2023-03-24T00:14:12.460Z,74.20
2023-03-24T00:18:43.327Z,74.32
2023-03-24T00:23:12.177Z,74.31
2023-03-24T00:39:48.816Z,74.59
2023-03-24T00:44:10.804Z,74.34
2023-03-24T00:48:40.956Z,74.51
2023-03-24T01:15:31.510Z,74.43
2023-03-24T01:20:00.882Z,74.34
2023-03-24T01:24:30.296Z,74.39
2023-03-24T01:28:40.899Z,74.51
2023-03-24T01:32:43.375Z,74.48
2023-03-24T01:54:23.859Z,75.02
2023-03-24T01:58:28.537Z,75.02
2023-03-24T02:02:56.265Z,75.02
2023-03-24T02:34:43.827Z,74.98
2023-03-24T02:39:24.139Z,75.11
2023-03-24T02:57:02.591Z,74.98
2023-03-24T03:01:44.148Z,74.96
2023-03-24T03:06:30.655Z,75.09
2023-03-24T03:19:49.131Z,75.10
2023-03-24T03:24:20.100Z,75.21
2023-03-24T03:28:39.978Z,75.21
2023-03-24T03:32:57.973Z,75.18
2023-03-24T03:37:36.066Z,75.10
2023-03-24T03:41:54.824Z,75.10
2023-03-24T04:03:27.210Z,75.37
2023-03-24T04:08:04.299Z,75.32
2023-03-24T04:12:32.079Z,75.44
2023-03-24T04:34:56.466Z,75.43
2023-03-24T04:39:21.451Z,75.61
2023-03-24T04:43:39.523Z,75.47
2023-03-24T04:48:09.696Z,75.33
2023-03-24T04:52:32.819Z,75.44
2023-03-24T05:13:28.660Z,75.35
2023-03-24T05:17:57.906Z,75.56
2023-03-24T05:22:04.649Z,75.38
2023-03-24T05:25:51.097Z,75.40
2023-03-24T05:29:10.154Z,75.49
2023-03-24T05:32:24.314Z,75.57
2023-03-24T05:36:13.706Z,75.48
2023-03-24T07:05:55.126Z,76.36
2023-03-24T07:22:34.652Z,76.18
2023-03-24T07:27:02.505Z,76.16
2023-03-24T08:04:02.934Z,75.59
2023-03-24T08:08:31.351Z,75.48
2023-03-24T08:12:26.613Z,75.51
2023-03-24T08:16:46.504Z,75.43
2023-03-24T08:21:06.633Z,75.70
2023-03-24T10:00:19.596Z,74.44
2023-03-24T10:04:48.916Z,74.39
2023-03-24T10:09:36.137Z,74.31
2023-03-24T10:13:57.780Z,74.35
2023-03-24T10:18:51.347Z,74.45
2023-03-24T10:23:13.282Z,74.30
2023-03-24T10:27:43.860Z,74.40
2023-03-24T10:31:52.092Z,74.38
2023-03-24T10:36:35.988Z,74.45
2023-03-24T10:41:08.162Z,74.45
2023-03-24T11:19:08.293Z,74.32
2023-03-24T11:23:37.674Z,74.23
2023-03-24T11:27:56.734Z,74.10
2023-03-24T11:32:35.606Z,74.48
2023-03-24T11:36:49.734Z,73.99
2023-03-24T12:35:29.421Z,68.65
2023-03-24T12:39:50.824Z,68.30
2023-03-24T12:44:10.380Z,67.33
2023-03-24T12:48:36.473Z,66.45
2023-03-24T12:57:13.231Z,64.97
2023-03-24T13:30:21.450Z,61.23
2023-03-24T14:08:32.993Z,59.84
2023-03-24T14:12:27.394Z,59.93
2023-03-24T14:16:20.182Z,60.10
2023-03-24T14:20:55.824Z,60.23
2023-03-24T14:25:24.960Z,60.24
2023-03-24T14:29:50.138Z,60.22
2023-03-24T14:33:40.473Z,60.04
2023-03-24T14:37:49.009Z,59.87
2023-03-24T14:46:51.294Z,59.52
2023-03-24T14:51:03.850Z,59.52
2023-03-24T14:55:39.215Z,59.47
2023-03-24T14:59:57.135Z,59.37
2023-03-24T15:04:24.765Z,59.20
2023-03-24T15:29:36.423Z,59.54
2023-03-24T15:33:49.908Z,59.60
2023-03-24T15:38:10.512Z,59.76
2023-03-24T15:42:13.734Z,59.90
2023-03-24T15:46:12.968Z,59.97
2023-03-24T15:50:24.498Z,60.08
2023-03-24T15:54:37.728Z,60.23
2023-03-24T15:58:54.715Z,60.10
2023-03-24T18:06:06.470Z,58.88
2023-03-24T18:10:35.671Z,59.03
2023-03-24T18:14:40.329Z,59.09
2023-03-24T18:19:09.040Z,59.02
2023-03-24T18:23:26.815Z,59.02
2023-03-24T18:49:30.101Z,59.52
2023-03-24T18:54:01.189Z,59.54
2023-03-24T18:58:11.066Z,59.46
2023-03-24T19:02:29.810Z,59.64
2023-03-24T19:07:00.452Z,59.46
2023-03-24T19:28:48.847Z,59.99
2023-03-24T19:33:10.262Z,59.95
2023-03-24T19:37:25.562Z,60.35
2023-03-24T19:41:39.378Z,60.66
2023-03-24T20:05:55.183Z,61.03
2023-03-24T20:10:14.938Z,61.26
2023-03-24T20:14:01.626Z,61.25
2023-03-24T20:18:23.237Z,61.66
2023-03-24T20:22:39.839Z,61.83
2023-03-24T20:27:04.036Z,61.90
2023-03-24T20:30:49.404Z,62.03
2023-03-24T22:01:15.884Z,63.75
2023-03-24T22:05:44.718Z,63.88
2023-03-24T22:10:06.559Z,64.09
2023-03-24T22:14:24.060Z,64.10
2023-03-24T22:18:53.390Z,64.15
2023-03-24T22:53:30.563Z,64.68
2023-03-24T22:57:59.980Z,64.69
2023-03-24T23:02:29.890Z,64.91
2023-03-24T23:34:01.710Z,65.21
2023-03-24T23:38:31.830Z,65.37
